Time;durP1;ratioP1;P1;durP2;ratioP2;P2;SDS_P1;SDS_P2;PMS_P1;PMS_P2;Temp;Humidity;BMP_temperature;BMP_pressure;BME280_temperature;BME280_humidity;BME280_pressure;Samples;Min_cycle;Max_cycle;Signal;HPM_P1;HPM_P2
2021/09/25 00:00:45;;;;;;;;;;;;;;;20.76;54.83;101677.34;5091627;28;19924;-65
2021/09/25 00:03:12;;;;;;;;;;;;;;;20.73;54.87;101670.47;5073892;28;19978;-69
2021/09/25 00:05:39;;;;;;;;;;;;;;;20.75;54.81;101675.66;5073801;28;19932;-64
2021/09/25 00:08:06;;;;;;;;;;;;;;;20.75;54.84;101676.53;5073834;28;20221;-65
2021/09/25 00:10:33;;;;;;;;;;;;;;;20.69;55.39;101675.19;5073512;28;19929;-64
2021/09/25 00:13:00;;;;;;;;;;;;;;;20.65;55.40;101671.09;5073737;28;19924;-65
2021/09/25 00:15:29;;;;;;;;;;;;;;;20.63;55.14;101683.72;5075180;28;20392;-64
2021/09/25 00:17:57;;;;;;;;;;;;;;;20.61;55.31;101685.66;5093745;28;20007;-65
2021/09/25 00:20:23;;;;;;;;;;;;;;;20.61;55.70;101680.34;5077014;28;20335;-65
2021/09/25 00:22:50;;;;;;;;;;;;;;;20.58;55.40;101680.56;5073596;28;20377;-65
2021/09/25 00:25:17;;;;;;;;;;;;;;;20.56;55.46;101685.22;5087557;28;19978;-65
2021/09/25 00:27:43;;;;;;;;;;;;;;;20.50;55.59;101688.38;5093701;28;19936;-64
2021/09/25 00:30:11;;;;;;;;;;;;;;;20.47;55.74;101691.31;5093542;28;20018;-64
2021/09/25 00:32:38;;;;;;;;;;;;;;;20.45;56.14;101691.44;5092342;28;19970;-64
2021/09/25 00:35:06;;;;;;;;;;;;;;;20.43;55.94;101689.88;5073239;28;19924;-64
2021/09/25 00:37:33;;;;;;;;;;;;;;;20.45;55.89;101691.44;5073213;28;19924;-65
2021/09/25 00:39:59;;;;;;;;;;;;;;;20.44;55.96;101697.72;5073093;28;19928;-66
2021/09/25 00:42:25;;;;;;;;;;;;;;;20.45;56.12;101703.94;5073099;28;19928;-64
2021/09/25 00:44:52;;;;;;;;;;;;;;;20.39;55.97;101691.94;5073246;28;19928;-65
2021/09/25 00:47:18;;;;;;;;;;;;;;;20.37;56.24;101693.91;5072784;28;19997;-64
2021/09/25 00:49:45;;;;;;;;;;;;;;;20.34;56.44;101692.34;5073057;28;19985;-63
2021/09/25 00:52:11;;;;;;;;;;;;;;;20.32;56.52;101686.28;5073082;28;19978;-64
2021/09/25 00:54:38;;;;;;;;;;;;;;;20.30;56.51;101684.72;5072903;28;19924;-65
2021/09/25 00:57:05;;;;;;;;;;;;;;;20.29;56.59;101685.69;5072915;28;19960;-64
2021/09/25 00:59:32;;;;;;;;;;;;;;;20.29;56.62;101686.56;5072225;28;20376;-65
2021/09/25 01:01:59;;;;;;;;;;;;;;;20.28;56.44;101690.19;5072438;28;19954;-65
2021/09/25 01:04:25;;;;;;;;;;;;;;;20.25;56.71;101690.41;5072894;28;20287;-64
2021/09/25 01:06:52;;;;;;;;;;;;;;;20.25;56.77;101694.91;5082337;28;19924;-64
2021/09/25 01:09:18;;;;;;;;;;;;;;;20.21;56.67;101684.53;5093055;28;20354;-64
2021/09/25 01:11:46;;;;;;;;;;;;;;;20.18;56.78;101686.59;5093011;28;19924;-67
2021/09/25 01:14:13;;;;;;;;;;;;;;;20.16;56.78;101697.38;5092906;28;19954;-64
2021/09/25 01:16:39;;;;;;;;;;;;;;;20.18;56.65;101689.25;5092451;28;19978;-64
2021/09/25 01:19:06;;;;;;;;;;;;;;;20.16;57.03;101693.84;5092884;28;19931;-65
2021/09/25 01:21:32;;;;;;;;;;;;;;;20.15;56.66;101690.38;5092808;28;19978;-64
2021/09/25 01:23:59;;;;;;;;;;;;;;;20.17;56.64;101682.22;5092270;28;19943;-64
2021/09/25 01:26:25;;;;;;;;;;;;;;;20.13;56.83;101686.13;5092829;28;19985;-64
2021/09/25 01:28:53;;;;;;;;;;;;;;;20.09;57.18;101682.00;5092875;28;19924;-65
2021/09/25 01:31:20;;;;;;;;;;;;;;;20.10;56.86;101689.91;5092408;28;19975;-66
2021/09/25 01:33:48;;;;;;;;;;;;;;;20.14;56.74;101688.66;5090993;28;19924;-65
2021/09/25 01:36:16;;;;;;;;;;;;;;;20.14;57.01;101690.50;5092696;28;19969;-64
2021/09/25 01:38:43;;;;;;;;;;;;;;;20.13;56.86;101684.28;5092764;28;19928;-65
2021/09/25 01:41:10;;;;;;;;;;;;;;;20.12;57.19;101681.78;5084288;28;19981;-64
2021/09/25 01:43:36;;;;;;;;;;;;;;;20.12;57.17;101682.59;5072406;28;19925;-65
2021/09/25 01:46:03;;;;;;;;;;;;;;;20.12;56.99;101671.09;5072453;28;20269;-67
2021/09/25 01:48:30;;;;;;;;;;;;;;;20.09;56.98;101669.53;5072285;28;20363;-70
2021/09/25 01:50:56;;;;;;;;;;;;;;;20.10;56.99;101673.03;5080465;28;20261;-64
2021/09/25 01:53:23;;;;;;;;;;;;;;;20.05;57.13;101666.28;5092488;28;20380;-65
2021/09/25 01:55:50;;;;;;;;;;;;;;;20.04;57.16;101666.41;5092373;28;19974;-64
2021/09/25 01:58:17;;;;;;;;;;;;;;;20.02;57.40;101669.22;5092131;28;19924;-64
2021/09/25 02:00:43;;;;;;;;;;;;;;;20.00;57.39;101659.66;5092546;28;19950;-64
2021/09/25 02:03:11;;;;;;;;;;;;;;;19.98;57.28;101665.09;5092138;28;20334;-70
2021/09/25 02:05:39;;;;;;;;;;;;;;;19.95;57.33;101668.00;5092348;28;19924;-65
2021/09/25 02:08:05;;;;;;;;;;;;;;;19.93;57.73;101669.94;5092437;28;19924;-66
2021/09/25 02:10:32;;;;;;;;;;;;;;;19.93;57.65;101669.94;5092503;28;19970;-65
2021/09/25 02:12:58;;;;;;;;;;;;;;;19.92;57.84;101673.56;5095771;28;19924;-65
2021/09/25 02:15:24;;;;;;;;;;;;;;;19.93;57.62;101675.28;5096175;28;19924;-65
2021/09/25 02:17:51;;;;;;;;;;;;;;;19.92;57.81;101675.41;5095808;28;19924;-65
2021/09/25 02:20:17;;;;;;;;;;;;;;;19.88;57.92;101680.13;5096145;28;19946;-64
2021/09/25 02:22:44;;;;;;;;;;;;;;;19.87;57.71;101681.97;5087773;28;19978;-65
2021/09/25 02:25:11;;;;;;;;;;;;;;;19.88;57.80;101675.66;5075660;28;19924;-64
2021/09/25 02:27:40;;;;;;;;;;;;;;;19.87;57.69;101679.31;5078032;28;20381;-65
2021/09/25 02:30:08;;;;;;;;;;;;;;;19.85;57.87;101681.22;5095857;28;19935;-66
2021/09/25 02:32:35;;;;;;;;;;;;;;;19.82;57.80;101680.59;5095369;28;20052;-65
2021/09/25 02:35:02;;;;;;;;;;;;;;;19.80;57.73;101682.56;5095711;28;19928;-69
2021/09/25 02:37:28;;;;;;;;;;;;;;;19.80;58.08;101685.22;5095687;28;20326;-65
2021/09/25 02:39:55;;;;;;;;;;;;;;;19.81;58.16;101682.44;5095589;28;19924;-64
2021/09/25 02:42:21;;;;;;;;;;;;;;;19.81;57.89;101679.75;5095717;28;19931;-65
2021/09/25 02:44:48;;;;;;;;;;;;;;;19.80;58.24;101678.06;5095155;28;19928;-66
2021/09/25 02:47:14;;;;;;;;;;;;;;;19.80;58.06;101671.91;5095239;28;19924;-64
2021/09/25 02:49:41;;;;;;;;;;;;;;;19.78;58.02;101668.50;5095438;28;19924;-67
2021/09/25 02:52:07;;;;;;;;;;;;;;;19.78;58.13;101674.66;5095481;28;20001;-65
2021/09/25 02:54:34;;;;;;;;;;;;;;;19.74;58.21;101671.44;5095410;28;19933;-64
2021/09/25 02:57:00;;;;;;;;;;;;;;;19.75;58.01;101673.09;5095197;28;19928;-65
2021/09/25 02:59:26;;;;;;;;;;;;;;;19.74;58.02;101676.75;5095343;28;19924;-64
2021/09/25 03:01:53;;;;;;;;;;;;;;;19.70;58.15;101682.44;5093417;28;19924;-64
2021/09/25 03:04:20;;;;;;;;;;;;;;;19.66;58.55;101670.34;5090857;28;19966;-64
2021/09/25 03:06:48;;;;;;;;;;;;;;;19.57;58.52;101667.44;5091939;28;19985;-65
2021/09/25 03:09:14;;;;;;;;;;;;;;;19.54;58.69;101673.03;5091882;28;19970;-64
2021/09/25 03:11:41;;;;;;;;;;;;;;;19.53;58.62;101668.66;5091498;28;19928;-65
2021/09/25 03:14:07;;;;;;;;;;;;;;;19.49;58.78;101669.91;5091879;28;20338;-65
2021/09/25 03:16:34;;;;;;;;;;;;;;;19.47;58.95;101669.16;5090847;28;19970;-66
2021/09/25 03:19:00;;;;;;;;;;;;;;;19.47;58.89;101661.16;5091502;28;19932;-65
2021/09/25 03:21:27;;;;;;;;;;;;;;;19.47;59.09;101665.66;5091771;28;19924;-66
2021/09/25 03:23:53;;;;;;;;;;;;;;;19.45;59.11;101665.75;5091133;28;19928;-64
2021/09/25 03:26:20;;;;;;;;;;;;;;;19.41;59.08;101673.16;5091669;28;19936;-65
2021/09/25 03:28:46;;;;;;;;;;;;;;;19.39;59.48;101674.25;5091228;28;19924;-65
2021/09/25 03:31:13;;;;;;;;;;;;;;;19.35;59.29;101672.78;5090906;28;19963;-64
2021/09/25 03:33:39;;;;;;;;;;;;;;;19.31;59.37;101674.88;5090686;28;19924;-65
2021/09/25 03:36:06;;;;;;;;;;;;;;;19.29;59.55;101675.94;5091424;28;19928;-67
2021/09/25 03:38:32;;;;;;;;;;;;;;;19.26;59.71;101674.34;5091064;28;19928;-65
2021/09/25 03:41:00;;;;;;;;;;;;;;;19.24;59.82;101671.00;5091241;28;19924;-64
2021/09/25 03:43:26;;;;;;;;;;;;;;;19.24;59.88;101668.31;5091232;28;19924;-64
2021/09/25 03:45:53;;;;;;;;;;;;;;;19.22;59.93;101675.56;5090880;28;20341;-64
2021/09/25 03:48:19;;;;;;;;;;;;;;;19.18;59.99;101674.13;5091105;28;19935;-64
2021/09/25 03:50:46;;;;;;;;;;;;;;;19.16;60.01;101681.38;5090505;28;19989;-64
2021/09/25 03:53:12;;;;;;;;;;;;;;;19.14;60.00;101680.66;5090827;28;19924;-64
2021/09/25 03:55:39;;;;;;;;;;;;;;;19.14;59.74;101678.00;5090786;28;19977;-67
2021/09/25 03:58:07;;;;;;;;;;;;;;;19.13;59.98;101681.63;5090774;28;19928;-64
2021/09/25 04:00:42;;;;;;;;;;;;;;;19.09;60.01;101679.19;5090211;28;19928;-66
2021/09/25 04:03:09;;;;;;;;;;;;;;;19.07;59.95;101683.81;5090627;28;19924;-64
2021/09/25 04:05:36;;;;;;;;;;;;;;;19.07;60.11;101685.59;5090658;28;19932;-64
2021/09/25 04:08:03;;;;;;;;;;;;;;;19.09;60.16;101689.00;5090237;28;19977;-64
2021/09/25 04:10:29;;;;;;;;;;;;;;;19.08;60.07;101688.16;5090641;28;19931;-64
2021/09/25 04:12:56;;;;;;;;;;;;;;;19.10;60.22;101698.69;5090631;28;19977;-68
2021/09/25 04:15:22;;;;;;;;;;;;;;;19.11;59.74;101688.88;5089967;28;19975;-64
2021/09/25 04:17:49;;;;;;;;;;;;;;;19.14;60.17;101691.31;5090665;28;20024;-64
2021/09/25 04:20:16;;;;;;;;;;;;;;;19.16;60.03;101692.03;5090672;28;19934;-65
2021/09/25 04:22:43;;;;;;;;;;;;;;;19.20;60.06;101696.16;5089627;28;19924;-64
2021/09/25 04:25:09;;;;;;;;;;;;;;;19.20;60.08;101690.84;5090199;28;20369;-70
2021/09/25 04:27:36;;;;;;;;;;;;;;;19.22;59.90;101688.88;5089110;28;19954;-65
2021/09/25 04:30:04;;;;;;;;;;;;;;;19.23;60.06;101687.91;5090032;28;20027;-65
2021/09/25 04:32:31;;;;;;;;;;;;;;;19.22;60.17;101686.22;5090004;28;20340;-64
2021/09/25 04:34:57;;;;;;;;;;;;;;;19.19;60.04;101686.47;5089624;28;20334;-64
2021/09/25 04:37:24;;;;;;;;;;;;;;;19.18;60.07;101690.09;5087977;28;19954;-64
2021/09/25 04:39:50;;;;;;;;;;;;;;;19.16;60.35;101710.66;5089518;28;19924;-71
2021/09/25 04:42:17;;;;;;;;;;;;;;;18.97;60.81;101706.75;5076277;28;19960;-65
2021/09/25 04:44:43;;;;;;;;;;;;;;;18.80;61.13;101702.69;5069834;28;20128;-64
2021/09/25 04:47:10;;;;;;;;;;;;;;;18.81;61.36;101706.22;5069880;28;19986;-64
2021/09/25 04:49:36;;;;;;;;;;;;;;;18.88;61.08;101712.75;5069702;28;19924;-64
2021/09/25 04:52:03;;;;;;;;;;;;;;;18.89;61.18;101710.00;5069483;28;19928;-64
2021/09/25 04:54:29;;;;;;;;;;;;;;;18.84;61.19;101716.59;5069341;28;19924;-69
2021/09/25 04:56:56;;;;;;;;;;;;;;;18.79;61.09;101724.09;5087153;28;19932;-67
2021/09/25 04:59:22;;;;;;;;;;;;;;;18.82;61.04;101726.53;5089243;28;19939;-68
2021/09/25 05:01:49;;;;;;;;;;;;;;;18.86;61.19;101728.00;5089791;28;19946;-65
2021/09/25 05:04:17;;;;;;;;;;;;;;;18.90;60.76;101735.63;5089631;28;19924;-64
2021/09/25 05:06:44;;;;;;;;;;;;;;;18.92;60.84;101732.88;5089712;28;19943;-64
2021/09/25 05:09:11;;;;;;;;;;;;;;;18.93;60.59;101732.75;5089767;28;19932;-64
2021/09/25 05:11:37;;;;;;;;;;;;;;;18.91;61.05;101741.81;5081884;28;19977;-65
2021/09/25 05:14:04;;;;;;;;;;;;;;;18.91;61.01;101739.16;5087294;28;20354;-65
2021/09/25 05:16:30;;;;;;;;;;;;;;;18.89;60.96;101741.03;5089420;28;20433;-67
2021/09/25 05:18:57;;;;;;;;;;;;;;;18.95;61.13;101747.75;5089492;28;19970;-64
2021/09/25 05:21:24;;;;;;;;;;;;;;;18.98;61.03;101745.72;5075528;28;19924;-65
2021/09/25 05:23:51;;;;;;;;;;;;;;;18.99;60.98;101746.53;5071748;28;19928;-64
2021/09/25 05:26:17;;;;;;;;;;;;;;;18.96;61.15;101746.75;5089444;28;19977;-65
2021/09/25 05:28:44;;;;;;;;;;;;;;;18.95;60.91;101747.75;5089401;28;19924;-66
2021/09/25 05:31:12;;;;;;;;;;;;;;;18.92;60.81;101748.84;5088905;28;19932;-65
2021/09/25 05:33:39;;;;;;;;;;;;;;;18.95;61.22;101753.06;5089411;28;19971;-72
2021/09/25 05:36:10;;;;;;;;;;;;;;;18.98;61.17;101747.50;5089501;28;20341;-63
2021/09/25 05:38:46;;;;;;;;;;;;;;;19.00;61.27;101748.25;5089227;28;20083;-64
2021/09/25 05:41:16;;;;;;;;;;;;;;;19.09;60.85;101744.88;5089851;28;19932;-64
2021/09/25 05:43:43;;;;;;;;;;;;;;;19.13;60.91;101748.16;5088936;28;19924;-65
2021/09/25 05:46:09;;;;;;;;;;;;;;;19.15;60.91;101748.88;5090148;28;19971;-64
2021/09/25 05:48:36;;;;;;;;;;;;;;;19.16;60.95;101758.53;5092678;28;19928;-64
2021/09/25 05:51:03;;;;;;;;;;;;;;;19.16;61.08;101754.09;5093442;28;20371;-65
2021/09/25 05:53:29;;;;;;;;;;;;;;;19.08;61.22;101760.00;5093186;28;19924;-64
2021/09/25 05:55:56;;;;;;;;;;;;;;;19.11;61.19;101758.03;5093353;28;19924;-64
2021/09/25 05:58:22;;;;;;;;;;;;;;;19.16;61.37;101763.84;5093013;28;19924;-65
2021/09/25 06:00:49;;;;;;;;;;;;;;;19.18;61.31;101762.78;5092727;28;19924;-64
2021/09/25 06:03:15;;;;;;;;;;;;;;;19.22;61.22;101777.56;5092521;28;19924;-64
2021/09/25 06:05:42;;;;;;;;;;;;;;;19.27;60.99;101771.88;5093061;28;19923;-71
2021/09/25 06:08:09;;;;;;;;;;;;;;;19.31;60.96;101773.34;5092890;28;19925;-64
2021/09/25 06:10:36;;;;;;;;;;;;;;;19.33;61.27;101770.56;5092693;28;20305;-64
2021/09/25 06:13:03;;;;;;;;;;;;;;;19.38;60.89;101779.03;5092822;28;19928;-64
2021/09/25 06:15:30;;;;;;;;;;;;;;;19.40;61.23;101780.59;5092403;28;20372;-68
2021/09/25 06:17:57;;;;;;;;;;;;;;;19.46;61.12;101783.75;5092944;28;20015;-64
2021/09/25 06:20:24;;;;;;;;;;;;;;;19.48;61.13;101784.50;5092083;28;20022;-64
2021/09/25 06:22:50;;;;;;;;;;;;;;;19.53;60.96;101784.97;5086331;28;20368;-64
2021/09/25 06:25:17;;;;;;;;;;;;;;;19.55;60.96;101786.56;5084911;28;19931;-64
2021/09/25 06:27:43;;;;;;;;;;;;;;;19.55;61.06;101788.34;5092780;28;19928;-69
2021/09/25 06:30:10;;;;;;;;;;;;;;;19.56;60.98;101788.22;5092360;28;19932;-66
2021/09/25 06:32:37;;;;;;;;;;;;;;;19.62;60.67;101802.03;5092290;28;19935;-65
2021/09/25 06:35:05;;;;;;;;;;;;;;;19.63;60.65;101801.06;5091828;28;19928;-64
2021/09/25 06:37:31;;;;;;;;;;;;;;;19.67;60.24;101791.88;5092220;28;19924;-64
2021/09/25 06:39:58;;;;;;;;;;;;;;;19.72;60.58;101803.84;5092416;28;19924;-65
2021/09/25 06:42:24;;;;;;;;;;;;;;;19.74;60.58;101801.94;5092193;28;20437;-64
2021/09/25 06:44:51;;;;;;;;;;;;;;;19.77;60.18;101797.31;5091721;28;19957;-65
2021/09/25 06:47:17;;;;;;;;;;;;;;;19.83;60.31;101799.53;5092307;28;19969;-64
2021/09/25 06:49:44;;;;;;;;;;;;;;;19.85;60.23;101800.25;5092511;28;19928;-65
2021/09/25 06:52:10;;;;;;;;;;;;;;;19.91;60.05;101810.44;5091522;28;19931;-64
2021/09/25 06:54:37;;;;;;;;;;;;;;;19.95;59.58;101813.66;5091766;28;20339;-68
2021/09/25 06:57:05;;;;;;;;;;;;;;;19.94;59.80;101820.84;5090694;28;19932;-64
2021/09/25 06:59:31;;;;;;;;;;;;;;;19.97;59.92;101830.41;5090536;28;19978;-65
2021/09/25 07:01:58;;;;;;;;;;;;;;;20.00;59.90;101828.34;5091453;28;19924;-65
2021/09/25 07:04:25;;;;;;;;;;;;;;;20.05;59.37;101835.97;5091060;28;19931;-65
2021/09/25 07:06:51;;;;;;;;;;;;;;;20.01;59.45;101839.84;5091146;28;20389;-61
2021/09/25 07:09:18;;;;;;;;;;;;;;;19.99;59.97;101845.28;5091137;28;19946;-65
2021/09/25 07:11:44;;;;;;;;;;;;;;;20.01;60.06;101854.03;5091287;28;20269;-66
2021/09/25 07:14:11;;;;;;;;;;;;;;;20.02;59.75;101852.19;5090287;28;19924;-64
2021/09/25 07:16:37;;;;;;;;;;;;;;;20.07;60.06;101863.34;5090612;28;19963;-66
2021/09/25 07:19:07;;;;;;;;;;;;;;;20.11;60.04;101862.09;5090688;28;19924;-65
2021/09/25 07:21:33;;;;;;;;;;;;;;;20.09;60.29;101858.75;5089139;28;20284;-65
2021/09/25 07:24:00;;;;;;;;;;;;;;;20.15;60.18;101860.06;5090630;28;19924;-62
2021/09/25 07:26:26;;;;;;;;;;;;;;;20.29;59.57;101862.47;5091289;28;19981;-65
2021/09/25 07:28:53;;;;;;;;;;;;;;;20.42;59.62;101857.00;5091293;28;19924;-64
2021/09/25 07:31:19;;;;;;;;;;;;;;;20.63;58.96;101848.22;5090946;28;19924;-66
2021/09/25 07:33:46;;;;;;;;;;;;;;;21.00;57.72;101846.06;5091143;28;19935;-64
2021/09/25 07:36:12;;;;;;;;;;;;;;;21.29;57.22;101845.44;5091112;28;19997;-64
2021/09/25 07:38:39;;;;;;;;;;;;;;;21.46;56.84;101856.50;5090607;28;19985;-65
2021/09/25 07:41:06;;;;;;;;;;;;;;;21.61;56.35;101857.00;5091319;28;19978;-64
2021/09/25 07:43:32;;;;;;;;;;;;;;;21.49;56.74;101861.56;5090907;28;19932;-68
2021/09/25 07:45:59;;;;;;;;;;;;;;;21.57;56.33;101852.91;5089924;28;19924;-67
2021/09/25 07:48:25;;;;;;;;;;;;;;;21.86;55.45;101845.03;5087816;28;19924;-64
2021/09/25 07:50:52;;;;;;;;;;;;;;;22.05;55.29;101844.28;5091079;28;19928;-65
2021/09/25 07:53:19;;;;;;;;;;;;;;;22.16;54.82;101836.16;5090830;28;19947;-63
2021/09/25 07:55:45;;;;;;;;;;;;;;;22.35;54.34;101843.38;5090035;28;19958;-64
2021/09/25 07:58:12;;;;;;;;;;;;;;;22.53;53.81;101837.38;5090700;28;19932;-64
2021/09/25 08:00:39;;;;;;;;;;;;;;;22.59;53.69;101844.84;5090149;28;19932;-66
2021/09/25 08:03:05;;;;;;;;;;;;;;;22.68;53.54;101848.53;5090505;28;19950;-64
2021/09/25 08:05:32;;;;;;;;;;;;;;;22.90;53.06;101843.91;5089316;28;19999;-64
2021/09/25 08:07:59;;;;;;;;;;;;;;;23.02;52.66;101839.22;5086459;28;20323;-62
2021/09/25 08:10:26;;;;;;;;;;;;;;;23.21;52.00;101841.06;5089900;28;19931;-62
2021/09/25 08:12:52;;;;;;;;;;;;;;;23.35;51.95;101835.28;5089266;28;19980;-64
2021/09/25 08:15:20;;;;;;;;;;;;;;;23.50;51.45;101834.81;5088939;28;19938;-65
2021/09/25 08:17:46;;;;;;;;;;;;;;;23.58;51.39;101832.22;5090141;28;19928;-65
2021/09/25 08:20:14;;;;;;;;;;;;;;;23.70;51.18;101822.19;5089899;28;19924;-64
2021/09/25 08:22:42;;;;;;;;;;;;;;;23.88;50.57;101824.94;5089647;28;19977;-63
2021/09/25 08:25:11;;;;;;;;;;;;;;;23.98;50.15;101830.28;5089962;28;19928;-63
2021/09/25 08:27:37;;;;;;;;;;;;;;;24.05;50.04;101836.72;5086845;28;19986;-64
2021/09/25 08:30:05;;;;;;;;;;;;;;;24.11;49.78;101834.31;5089169;28;19950;-63
2021/09/25 08:32:32;;;;;;;;;;;;;;;24.29;49.48;101831.66;5089604;28;19932;-65
2021/09/25 08:34:59;;;;;;;;;;;;;;;24.40;49.06;101837.81;5089153;28;20411;-63
2021/09/25 08:37:25;;;;;;;;;;;;;;;24.48;49.12;101847.78;5089667;28;20380;-63
2021/09/25 08:39:52;;;;;;;;;;;;;;;24.70;48.67;101852.72;5089821;28;19973;-63
2021/09/25 08:42:19;;;;;;;;;;;;;;;24.88;48.08;101846.53;5089476;28;19932;-64
2021/09/25 08:44:49;;;;;;;;;;;;;;;25.09;47.69;101844.34;5090023;28;20334;-64
2021/09/25 08:47:20;;;;;;;;;;;;;;;25.21;47.31;101842.25;5090277;28;20879;-64
2021/09/25 08:49:47;;;;;;;;;;;;;;;25.33;47.03;101836.59;5090265;28;19934;-63
2021/09/25 08:52:14;;;;;;;;;;;;;;;25.48;46.80;101842.28;5089938;28;20268;-64
2021/09/25 08:54:40;;;;;;;;;;;;;;;25.46;46.63;101846.97;5089922;28;19927;-64
2021/09/25 08:57:07;;;;;;;;;;;;;;;25.55;46.64;101844.19;5088894;28;19924;-63
2021/09/25 08:59:33;;;;;;;;;;;;;;;25.67;46.06;101844.72;5088961;28;20331;-63
2021/09/25 09:02:10;;;;;;;;;;;;;;;25.84;45.92;101844.81;5089738;28;20327;-63
2021/09/25 09:04:55;;;;;;;;;;;;;;;26.00;45.37;101850.25;5089492;28;20087;-64
2021/09/25 09:07:23;;;;;;;;;;;;;;;26.12;45.27;101844.63;5089595;28;19927;-64
2021/09/25 09:09:50;;;;;;;;;;;;;;;26.26;44.98;101845.84;5090006;28;20014;-63
2021/09/25 09:12:21;;;;;;;;;;;;;;;26.36;44.68;101841.16;5089299;28;20333;-63
2021/09/25 09:14:49;;;;;;;;;;;;;;;26.43;44.40;101838.66;5089948;28;19981;-64
2021/09/25 09:17:26;;;;;;;;;;;;;;;26.59;43.95;101840.53;5088869;28;19925;-63
2021/09/25 09:19:53;;;;;;;;;;;;;;;26.71;43.77;101839.19;5087742;28;19928;-64
2021/09/25 09:22:21;;;;;;;;;;;;;;;26.79;43.77;101839.25;5088934;28;19924;-64
2021/09/25 09:24:48;;;;;;;;;;;;;;;26.93;43.54;101842.28;5088906;28;19924;-64
2021/09/25 09:27:19;;;;;;;;;;;;;;;27.00;43.49;101837.91;5088816;28;19924;-64
2021/09/25 09:29:46;;;;;;;;;;;;;;;27.05;43.21;101843.63;5089613;28;19990;-65
2021/09/25 09:32:13;;;;;;;;;;;;;;;27.26;42.68;101839.56;5089507;28;19932;-64
2021/09/25 09:34:40;;;;;;;;;;;;;;;27.45;42.46;101830.28;5088660;28;19928;-65
2021/09/25 09:37:13;;;;;;;;;;;;;;;27.69;41.83;101832.91;5089429;28;19935;-64
2021/09/25 09:39:39;;;;;;;;;;;;;;;27.85;41.57;101829.31;5088608;28;20364;-63
2021/09/25 09:42:06;;;;;;;;;;;;;;;27.94;41.62;101823.88;5089405;28;20354;-63
2021/09/25 09:44:33;;;;;;;;;;;;;;;28.07;40.93;101824.16;5088832;28;19981;-64
2021/09/25 09:47:02;;;;;;;;;;;;;;;27.73;41.78;101819.06;5089267;28;20118;-63
2021/09/25 09:49:33;;;;;;;;;;;;;;;27.37;42.15;101823.84;5087726;28;19993;-65
2021/09/25 09:52:05;;;;;;;;;;;;;;;27.60;41.63;101817.75;5089301;28;20060;-64
2021/09/25 09:54:31;;;;;;;;;;;;;;;27.49;41.97;101824.38;5088670;28;20265;-61
2021/09/25 09:56:59;;;;;;;;;;;;;;;27.22;42.32;101825.56;5085004;28;19924;-62
2021/09/25 09:59:26;;;;;;;;;;;;;;;27.16;42.53;101826.25;5088716;28;19932;-61
2021/09/25 10:01:52;;;;;;;;;;;;;;;27.38;41.78;101827.41;5078105;28;19972;-62
2021/09/25 10:04:20;;;;;;;;;;;;;;;27.63;40.98;101819.25;5068803;28;19925;-62
2021/09/25 10:06:48;;;;;;;;;;;;;;;27.79;40.82;101821.91;5079944;28;19935;-61
2021/09/25 10:09:15;;;;;;;;;;;;;;;28.09;40.41;101819.44;5088981;28;19924;-62
2021/09/25 10:11:43;;;;;;;;;;;;;;;28.08;40.07;101815.06;5089162;28;20269;-61
2021/09/25 10:14:10;;;;;;;;;;;;;;;27.83;40.76;101819.69;5088834;28;20281;-61
2021/09/25 10:16:36;;;;;;;;;;;;;;;28.02;40.32;101813.88;5088803;28;19927;-62
2021/09/25 10:19:04;;;;;;;;;;;;;;;28.05;40.49;101817.25;5069207;28;19928;-64
2021/09/25 10:21:33;;;;;;;;;;;;;;;28.03;40.08;101823.69;5068627;28;19928;-61
2021/09/25 10:24:09;;;;;;;;;;;;;;;28.06;40.01;101818.94;5078663;28;19924;-62
2021/09/25 10:26:43;;;;;;;;;;;;;;;27.69;40.96;101819.44;5088391;28;19928;-61
2021/09/25 10:29:10;;;;;;;;;;;;;;;27.82;40.64;101815.31;5083740;28;20384;-61
2021/09/25 10:31:37;;;;;;;;;;;;;;;27.95;40.46;101810.22;5068122;28;19941;-62
2021/09/25 10:34:05;;;;;;;;;;;;;;;28.25;39.80;101809.56;5071492;28;19925;-62
2021/09/25 10:36:39;;;;;;;;;;;;;;;28.43;39.48;101807.44;5074024;28;20426;-63
2021/09/25 10:39:24;;;;;;;;;;;;;;;28.47;39.50;101799.81;5073865;28;19929;-63
2021/09/25 10:42:03;;;;;;;;;;;;;;;28.64;39.14;101793.25;5071997;28;20347;-62
2021/09/25 10:44:31;;;;;;;;;;;;;;;28.64;39.21;101808.63;5079105;28;19982;-63
2021/09/25 10:47:05;;;;;;;;;;;;;;;28.72;38.96;101805.91;5091891;28;19928;-62
2021/09/25 10:49:40;;;;;;;;;;;;;;;28.88;38.49;101812.19;5088400;28;19924;-62
2021/09/25 10:52:07;;;;;;;;;;;;;;;28.89;38.26;101798.47;5091345;28;20396;-62
2021/09/25 10:54:33;;;;;;;;;;;;;;;28.94;38.28;101798.75;5091352;28;19955;-62
2021/09/25 10:57:00;;;;;;;;;;;;;;;28.99;38.44;101801.75;5091036;28;20392;-63
2021/09/25 10:59:26;;;;;;;;;;;;;;;28.96;38.01;101787.75;5091773;28;19928;-62
2021/09/25 11:01:54;;;;;;;;;;;;;;;28.99;38.33;101790.94;5090831;28;19974;-62
2021/09/25 11:04:21;;;;;;;;;;;;;;;29.25;37.94;101781.53;5091581;28;19928;-62
2021/09/25 11:06:52;;;;;;;;;;;;;;;29.45;37.21;101781.88;5091626;28;19935;-63
2021/09/25 11:09:38;;;;;;;;;;;;;;;29.57;36.79;101792.22;5091252;28;19997;-62
2021/09/25 11:12:13;;;;;;;;;;;;;;;29.76;36.81;101783.53;5090484;28;19924;-67
2021/09/25 11:14:54;;;;;;;;;;;;;;;29.87;36.57;101781.34;5091132;28;19977;-63
2021/09/25 11:17:20;;;;;;;;;;;;;;;29.85;36.53;101789.63;5091106;28;19928;-62
2021/09/25 11:19:54;;;;;;;;;;;;;;;29.96;36.46;101785.66;5085593;28;19936;-64
2021/09/25 11:22:21;;;;;;;;;;;;;;;30.08;36.17;101786.84;5090127;28;19950;-65
2021/09/25 11:24:54;;;;;;;;;;;;;;;30.14;35.59;101787.94;5086607;28;19989;-65
2021/09/25 11:27:22;;;;;;;;;;;;;;;30.16;36.10;101783.16;5084665;28;20334;-64
2021/09/25 11:29:49;;;;;;;;;;;;;;;30.19;35.62;101779.22;5090470;28;20371;-64
2021/09/25 11:32:16;;;;;;;;;;;;;;;30.28;35.50;101780.78;5090380;28;19928;-63
2021/09/25 11:34:42;;;;;;;;;;;;;;;30.24;35.88;101780.31;5090447;28;19924;-63
2021/09/25 11:37:09;;;;;;;;;;;;;;;30.15;35.89;101783.38;5087715;28;19928;-65
2021/09/25 11:39:35;;;;;;;;;;;;;;;30.16;35.58;101782.31;5090391;28;19974;-64
2021/09/25 11:42:14;;;;;;;;;;;;;;;30.16;35.88;101774.19;5090711;28;19939;-63
2021/09/25 11:44:41;;;;;;;;;;;;;;;30.22;35.90;101755.31;5085362;28;19928;-63
2021/09/25 11:47:07;;;;;;;;;;;;;;;30.40;35.63;101763.00;5090497;28;20598;-63
2021/09/25 11:49:34;;;;;;;;;;;;;;;30.49;35.06;101755.59;5090483;28;19928;-62
2021/09/25 11:52:01;;;;;;;;;;;;;;;30.56;34.91;101755.66;5090101;28;19924;-61
2021/09/25 11:54:27;;;;;;;;;;;;;;;30.55;35.17;101767.50;5090661;28;19924;-62
2021/09/25 11:56:54;;;;;;;;;;;;;;;30.65;34.98;101762.59;5090472;28;19924;-62
2021/09/25 11:59:21;;;;;;;;;;;;;;;30.76;35.11;101759.34;5089647;28;19959;-62
2021/09/25 12:01:48;;;;;;;;;;;;;;;30.78;34.70;101751.03;5082293;28;19977;-64
2021/09/25 12:04:14;;;;;;;;;;;;;;;30.89;34.90;101758.63;5090174;28;19927;-63
2021/09/25 12:06:51;;;;;;;;;;;;;;;30.92;34.99;101744.66;5090041;28;19924;-63
2021/09/25 12:09:37;;;;;;;;;;;;;;;30.58;34.95;101751.72;5090278;28;19935;-64
2021/09/25 12:12:04;;;;;;;;;;;;;;;30.73;34.63;101748.91;5090371;28;20548;-63
2021/09/25 12:14:40;;;;;;;;;;;;;;;30.74;35.03;101747.88;5090396;28;19924;-62
2021/09/25 12:17:06;;;;;;;;;;;;;;;30.78;35.05;101742.91;5089717;28;19927;-64
2021/09/25 12:19:33;;;;;;;;;;;;;;;30.85;34.78;101741.06;5090293;28;20407;-64
2021/09/25 12:21:59;;;;;;;;;;;;;;;30.89;34.71;101736.09;5090152;28;19931;-63
2021/09/25 12:24:26;;;;;;;;;;;;;;;30.97;34.57;101735.94;5090291;28;20496;-64
2021/09/25 12:26:55;;;;;;;;;;;;;;;30.90;34.25;101738.59;5090454;28;19997;-63
2021/09/25 12:29:21;;;;;;;;;;;;;;;30.88;34.11;101743.41;5090414;28;20300;-64
2021/09/25 12:31:58;;;;;;;;;;;;;;;31.04;34.18;101733.28;5090445;28;19924;-63
2021/09/25 12:34:24;;;;;;;;;;;;;;;31.03;33.83;101732.44;5089507;28;19928;-63
2021/09/25 12:36:53;;;;;;;;;;;;;;;31.08;34.20;101729.16;5089987;28;19928;-64